Flight Number: EUR2234 Duration: 1:45
Departure: Skopje Airport (LWSK) at 21:20 Distance: 566 Nm
Arrival: Munich Int'l (EDDM) at 23:05 Equipment: B737

Weather Information
Skopje-Petrovec, Macedonia, The Republic of (LWSK) 41-58N 021-39E 239M Jan 21, 2019 - 07:00 AM EST / 2019.01.21 1200 UTC
Wind: Calm:0
Visibility: 1 mile(s):0
Sky conditions: overcast Weather: mist Temperature: 39 F (4 C) Dew Point: 37 F (3 C) Relative Humidity: 93% Pressure (altimeter): 30.06 in. Hg (1018 hPa)
ob: LWSK 211200Z 00000KT 2700 BR FEW010 OVC020 04/03 Q1018 NOSIG cycle: 12
Sunrise: 05:58 Sunset: 15:30 (UTC)

Munchen, Germany (EDDM) 48-21N 011-47E Jan 21, 2019 - 06:50 AM EST / 2019.01.21 1150 UTC
Wind: from the NE (050 degrees) at 5 MPH (4 KT) (direction variable):0
Visibility: greater than 7 mile(s):0
Sky conditions: mostly clear Temperature: 26 F (-3 C)
Windchill: 19 F (-7 C):1 Dew Point: 23 F (-5 C) Relative Humidity: 86% Pressure (altimeter): 30.09 in. Hg (1019 hPa)
ob: EDDM 211150Z 05004KT 010V120 9999 FEW012 M03/M05 Q1019 NOSIG cycle: 12
Sunrise: 06:57 Sunset: 15:50 (UTC)

TAF:2019/01/21 12:27 TAF EDDM 211100Z 2112/2218 VRB03KT 9000 SCT040 TEMPO 2200/2210 3000 BR PROB30 TEMPO 2202/2208 BKN007 BECMG 2212/2214 11005KT

Previous Pireps for this route
Date Aircraft Flight time Fuel used Landing rate On time
2013-07-24B73701.5211200-241Yes
2014-01-03B73702.1319437-490No
2014-11-05B73701.4310476-121Yes
(pireps marked green are flown by you)

Route map